Terminal Aerodrome Forecast
Issued by NWS

Home | Current Version | Previous Version | Text Only | Print | Product List | Glossary On
Versions: 1 2 3 4 5 6 7 8 9 10 11 12 13
000
FTUS45 KVEF 200500
TAFDAG
TAF
KDAG 200521Z 2006/2106 27011KT P6SM FEW110
     FM201600 31008KT P6SM FEW110
     FM201900 07010KT P6SM SCT110
     FM202300 27011KT P6SM SCT110
      AMD NOT SKED=

USA.gov is the U.S. government's official web portal to all federal, state and local government web resources and services.